GLO8878 SBSP-SBPS
Flight info
| Callsign | GLO8878 |
|---|---|
| Flight time | 1h 32m |
| Altitude | 35000 |
| Route | VUMEV UZ14 KALOP DCT PULKU DCT OSUNO |
| Aircraft | B738/M-SDE2E3FGHIRWXY/LB1 |
Departure
| Time | 2026-04-23 21:18 |
|---|---|
| Airport | Congonhas–Deputado Freitas Nobre Airport (SBSP) |
Arrival
| Time | 2026-04-23 22:50 |
|---|---|
| Airport | Porto Seguro International Airport (SBPS) |
| Time | Latitude | Longitude | Altitude | Speed | Heading |
|---|---|---|---|---|---|
| 2026-04-23 21:06 | -23.62487 | -46.65987 | 2623 ft | 0 kts | 239° |
| 2026-04-23 21:12 | -23.62475 | -46.65965 | 2600 ft | 4 kts | 243° |
| 2026-04-23 21:13 | -23.62470 | -46.65949 | 2604 ft | 2 kts | 274° |
| 2026-04-23 21:13 | -23.62473 | -46.65937 | 2637 ft | 2 kts | 317° |
| 2026-04-23 21:13 | -23.62482 | -46.65930 | 2632 ft | 2 kts | 326° |
| 2026-04-23 21:13 | -23.62491 | -46.65924 | 2619 ft | 0 kts | 328° |
| 2026-04-23 21:14 | -23.62489 | -46.65925 | 2619 ft | 0 kts | 328° |
| 2026-04-23 21:15 | -23.62482 | -46.65930 | 2632 ft | 4 kts | 328° |
| 2026-04-23 21:15 | -23.62435 | -46.65963 | 2627 ft | 11 kts | 327° |
| 2026-04-23 21:15 | -23.62353 | -46.66019 | 2615 ft | 16 kts | 332° |
| 2026-04-23 21:15 | -23.62239 | -46.66047 | 2612 ft | 17 kts | 342° |
| 2026-04-23 21:16 | -23.62143 | -46.66107 | 2608 ft | 15 kts | 327° |
| 2026-04-23 21:16 | -23.62048 | -46.66119 | 2603 ft | 15 kts | 33° |
| 2026-04-23 21:16 | -23.62060 | -46.66061 | 2605 ft | 10 kts | 153° |
| 2026-04-23 21:16 | -23.62080 | -46.66049 | 2606 ft | 0 kts | 148° |
| 2026-04-23 21:17 | -23.62149 | -46.66001 | 2609 ft | 44 kts | 147° |
| 2026-04-23 21:18 | -23.62638 | -46.65664 | 2622 ft | 120 kts | 148° |
| 2026-04-23 21:18 | -23.63511 | -46.65051 | 2784 ft | 171 kts | 147° |
| 2026-04-23 21:18 | -23.64555 | -46.64292 | 3512 ft | 194 kts | 147° |
| 2026-04-23 21:18 | -23.65635 | -46.63247 | 3869 ft | 218 kts | 123° |
| 2026-04-23 21:19 | -23.66388 | -46.61794 | 3916 ft | 222 kts | 116° |
| 2026-04-23 21:19 | -23.67082 | -46.60271 | 3947 ft | 226 kts | 116° |
| 2026-04-23 21:19 | -23.67784 | -46.58712 | 3958 ft | 230 kts | 116° |
| 2026-04-23 21:19 | -23.68496 | -46.57140 | 3996 ft | 234 kts | 116° |
| 2026-04-23 21:20 | -23.69223 | -46.55542 | 4087 ft | 235 kts | 116° |
| 2026-04-23 21:20 | -23.69957 | -46.53933 | 4333 ft | 238 kts | 116° |
| 2026-04-23 21:20 | -23.70698 | -46.52311 | 5139 ft | 241 kts | 115° |
| 2026-04-23 21:20 | -23.71459 | -46.50645 | 5992 ft | 250 kts | 115° |
| 2026-04-23 21:21 | -23.71972 | -46.48834 | 6835 ft | 253 kts | 89° |
| 2026-04-23 21:21 | -23.71802 | -46.46953 | 7731 ft | 253 kts | 80° |
| 2026-04-23 21:21 | -23.71531 | -46.45067 | 8744 ft | 252 kts | 81° |
| 2026-04-23 21:21 | -23.71251 | -46.43169 | 9683 ft | 255 kts | 81° |
| 2026-04-23 21:22 | -23.70966 | -46.41235 | 10474 ft | 261 kts | 81° |
| 2026-04-23 21:22 | -23.70672 | -46.39225 | 10895 ft | 279 kts | 81° |
| 2026-04-23 21:22 | -23.70356 | -46.37042 | 11059 ft | 303 kts | 81° |
| 2026-04-23 21:22 | -23.70016 | -46.34681 | 11214 ft | 325 kts | 81° |
| 2026-04-23 21:23 | -23.69659 | -46.32195 | 11377 ft | 345 kts | 81° |
| 2026-04-23 21:23 | -23.69282 | -46.29560 | 11922 ft | 355 kts | 81° |
| 2026-04-23 21:23 | -23.68899 | -46.26875 | 12675 ft | 360 kts | 81° |
| 2026-04-23 21:23 | -23.68511 | -46.24162 | 13468 ft | 364 kts | 81° |
| 2026-04-23 21:24 | -23.68117 | -46.21412 | 14222 ft | 367 kts | 81° |
| 2026-04-23 21:24 | -23.67725 | -46.18675 | 14814 ft | 373 kts | 81° |
| 2026-04-23 21:24 | -23.67254 | -46.15872 | 15424 ft | 378 kts | 73° |
| 2026-04-23 21:24 | -23.66054 | -46.13319 | 16098 ft | 383 kts | 53° |
| 2026-04-23 21:25 | -23.64129 | -46.11280 | 16642 ft | 392 kts | 34° |
| 2026-04-23 21:25 | -23.61720 | -46.09843 | 17241 ft | 397 kts | 27° |
| 2026-04-23 21:25 | -23.59217 | -46.08517 | 17810 ft | 402 kts | 27° |
| 2026-04-23 21:25 | -23.56687 | -46.07159 | 18353 ft | 408 kts | 27° |
| 2026-04-23 21:26 | -23.54130 | -46.05756 | 18821 ft | 413 kts | 27° |
| 2026-04-23 21:26 | -23.51565 | -46.04332 | 19332 ft | 416 kts | 27° |
| 2026-04-23 21:26 | -23.48973 | -46.02889 | 19790 ft | 421 kts | 26° |
| 2026-04-23 21:26 | -23.46342 | -46.01428 | 20237 ft | 425 kts | 26° |
| 2026-04-23 21:27 | -23.43673 | -46.00027 | 20756 ft | 427 kts | 19° |
| 2026-04-23 21:27 | -23.40773 | -45.99412 | 21178 ft | 427 kts | 0° |
| 2026-04-23 21:27 | -23.37802 | -45.99364 | 21707 ft | 428 kts | 359° |
| 2026-04-23 21:27 | -23.34813 | -45.99318 | 22169 ft | 431 kts | 359° |
| 2026-04-23 21:28 | -23.31842 | -45.99244 | 22584 ft | 435 kts | 359° |
| 2026-04-23 21:28 | -23.28807 | -45.99144 | 22999 ft | 438 kts | 359° |
| 2026-04-23 21:28 | -23.25751 | -45.99033 | 23429 ft | 440 kts | 359° |
| 2026-04-23 21:28 | -23.22673 | -45.98920 | 23820 ft | 443 kts | 359° |
| 2026-04-23 21:29 | -23.19583 | -45.98808 | 24160 ft | 445 kts | 359° |
| 2026-04-23 21:29 | -23.16481 | -45.98696 | 24479 ft | 448 kts | 359° |
| 2026-04-23 21:29 | -23.13354 | -45.98584 | 24800 ft | 451 kts | 359° |
| 2026-04-23 21:29 | -23.10210 | -45.98472 | 25100 ft | 453 kts | 358° |
| 2026-04-23 21:30 | -23.07046 | -45.98358 | 25401 ft | 456 kts | 358° |
| 2026-04-23 21:30 | -23.03861 | -45.98244 | 25711 ft | 458 kts | 358° |
| 2026-04-23 21:30 | -23.00660 | -45.98129 | 26010 ft | 460 kts | 358° |
| 2026-04-23 21:30 | -22.97490 | -45.98016 | 26278 ft | 463 kts | 358° |
| 2026-04-23 21:31 | -22.94262 | -45.97900 | 26560 ft | 465 kts | 358° |
| 2026-04-23 21:31 | -22.91016 | -45.97755 | 26842 ft | 469 kts | 2° |
| 2026-04-23 21:31 | -22.87815 | -45.96916 | 27042 ft | 481 kts | 20° |
| 2026-04-23 21:31 | -22.84899 | -45.95076 | 27312 ft | 488 kts | 32° |
| 2026-04-23 21:32 | -22.82115 | -45.92956 | 27561 ft | 490 kts | 33° |
| 2026-04-23 21:32 | -22.79330 | -45.90794 | 27765 ft | 493 kts | 33° |
| 2026-04-23 21:32 | -22.76531 | -45.88621 | 27979 ft | 496 kts | 33° |
| 2026-04-23 21:32 | -22.73717 | -45.86455 | 28209 ft | 498 kts | 32° |
| 2026-04-23 21:33 | -22.70879 | -45.84292 | 28426 ft | 500 kts | 32° |
| 2026-04-23 21:33 | -22.68021 | -45.82132 | 28645 ft | 502 kts | 32° |
| 2026-04-23 21:33 | -22.65142 | -45.79967 | 28854 ft | 504 kts | 32° |
| 2026-04-23 21:33 | -22.62256 | -45.77803 | 29055 ft | 506 kts | 32° |
| 2026-04-23 21:34 | -22.59357 | -45.75631 | 29223 ft | 508 kts | 32° |
| 2026-04-23 21:34 | -22.56451 | -45.73454 | 29391 ft | 510 kts | 32° |
| 2026-04-23 21:34 | -22.53526 | -45.71263 | 29590 ft | 512 kts | 32° |
| 2026-04-23 21:34 | -22.50594 | -45.69067 | 29789 ft | 513 kts | 32° |
| 2026-04-23 21:35 | -22.47656 | -45.66867 | 30013 ft | 514 kts | 32° |
| 2026-04-23 21:35 | -22.44720 | -45.64668 | 30277 ft | 513 kts | 32° |
| 2026-04-23 21:35 | -22.41781 | -45.62469 | 30523 ft | 512 kts | 32° |
| 2026-04-23 21:35 | -22.38890 | -45.60306 | 30808 ft | 510 kts | 32° |
| 2026-04-23 21:36 | -22.33072 | -45.55958 | 31347 ft | 507 kts | 32° |
| 2026-04-23 21:36 | -22.30166 | -45.53789 | 31579 ft | 506 kts | 32° |
| 2026-04-23 21:36 | -22.27272 | -45.51629 | 31806 ft | 505 kts | 32° |
| 2026-04-23 21:37 | -22.24386 | -45.49477 | 32057 ft | 503 kts | 32° |
| 2026-04-23 21:37 | -22.21507 | -45.47331 | 32319 ft | 502 kts | 33° |
| 2026-04-23 21:37 | -22.18643 | -45.45196 | 32619 ft | 499 kts | 33° |
| 2026-04-23 21:37 | -22.15822 | -45.43095 | 32879 ft | 497 kts | 33° |
| 2026-04-23 21:38 | -22.12977 | -45.40978 | 33103 ft | 496 kts | 33° |
| 2026-04-23 21:38 | -22.10103 | -45.38839 | 33330 ft | 496 kts | 33° |
| 2026-04-23 21:38 | -22.07268 | -45.36731 | 33579 ft | 494 kts | 33° |
| 2026-04-23 21:38 | -22.04478 | -45.34656 | 33869 ft | 491 kts | 33° |
| 2026-04-23 21:39 | -22.01710 | -45.32490 | 34128 ft | 490 kts | 36° |
| 2026-04-23 21:39 | -21.99028 | -45.30255 | 34309 ft | 489 kts | 37° |
| 2026-04-23 21:39 | -21.96359 | -45.27969 | 34446 ft | 489 kts | 37° |
| 2026-04-23 21:39 | -21.93706 | -45.25682 | 34559 ft | 490 kts | 37° |
| 2026-04-23 21:40 | -21.91043 | -45.23395 | 34710 ft | 489 kts | 37° |
| 2026-04-23 21:40 | -21.88371 | -45.21115 | 34993 ft | 486 kts | 37° |
| 2026-04-23 21:40 | -21.85721 | -45.18867 | 35124 ft | 486 kts | 37° |
| 2026-04-23 21:41 | -21.80420 | -45.14397 | 35118 ft | 486 kts | 37° |
| 2026-04-23 21:41 | -21.75075 | -45.09901 | 35117 ft | 483 kts | 37° |
| 2026-04-23 21:42 | -21.69820 | -45.05483 | 35123 ft | 481 kts | 37° |
| 2026-04-23 21:42 | -21.64558 | -45.01061 | 35127 ft | 479 kts | 37° |
| 2026-04-23 21:43 | -21.59391 | -44.96724 | 35123 ft | 479 kts | 37° |
| 2026-04-23 21:43 | -21.54138 | -44.92318 | 35129 ft | 479 kts | 37° |
| 2026-04-23 21:44 | -21.48878 | -44.87910 | 35122 ft | 480 kts | 37° |
| 2026-04-23 21:44 | -21.43601 | -44.83491 | 35123 ft | 481 kts | 37° |
| 2026-04-23 21:45 | -21.38313 | -44.79066 | 35128 ft | 482 kts | 37° |
| 2026-04-23 21:45 | -21.33022 | -44.74650 | 35125 ft | 483 kts | 37° |
| 2026-04-23 21:46 | -21.27736 | -44.70246 | 35121 ft | 483 kts | 37° |
| 2026-04-23 21:46 | -21.22426 | -44.65824 | 35116 ft | 483 kts | 37° |
| 2026-04-23 21:47 | -21.17116 | -44.61400 | 35131 ft | 483 kts | 37° |
| 2026-04-23 21:47 | -21.11816 | -44.56983 | 35125 ft | 482 kts | 37° |
| 2026-04-23 21:48 | -21.06521 | -44.52573 | 35126 ft | 481 kts | 37° |
| 2026-04-23 21:48 | -21.01273 | -44.48205 | 35122 ft | 481 kts | 37° |
| 2026-04-23 21:49 | -20.96000 | -44.43826 | 35130 ft | 480 kts | 37° |
| 2026-04-23 21:49 | -20.90714 | -44.39450 | 35128 ft | 480 kts | 37° |
| 2026-04-23 21:50 | -20.85436 | -44.35086 | 35137 ft | 479 kts | 37° |
| 2026-04-23 21:50 | -20.81052 | -44.31461 | 35134 ft | 479 kts | 37° |
| 2026-04-23 21:51 | -20.75779 | -44.27104 | 35135 ft | 479 kts | 37° |
| 2026-04-23 21:51 | -20.70508 | -44.22751 | 35134 ft | 479 kts | 37° |
| 2026-04-23 21:52 | -20.65239 | -44.18406 | 35134 ft | 479 kts | 38° |
| 2026-04-23 21:52 | -20.60389 | -44.13545 | 35145 ft | 478 kts | 47° |
| 2026-04-23 21:53 | -20.55897 | -44.08293 | 35134 ft | 478 kts | 48° |
| 2026-04-23 21:53 | -20.51446 | -44.03085 | 35136 ft | 479 kts | 47° |
| 2026-04-23 21:54 | -20.46993 | -43.97953 | 35140 ft | 479 kts | 47° |
| 2026-04-23 21:54 | -20.42448 | -43.92760 | 35136 ft | 479 kts | 47° |
| 2026-04-23 21:55 | -20.37892 | -43.87568 | 35141 ft | 479 kts | 47° |
| 2026-04-23 21:55 | -20.33339 | -43.82381 | 35146 ft | 478 kts | 47° |
| 2026-04-23 21:56 | -20.28781 | -43.77190 | 35150 ft | 478 kts | 47° |
| 2026-04-23 21:56 | -20.24269 | -43.72057 | 35144 ft | 478 kts | 47° |
| 2026-04-23 21:57 | -20.19724 | -43.66889 | 35144 ft | 478 kts | 47° |
| 2026-04-23 21:57 | -20.15183 | -43.61732 | 35148 ft | 477 kts | 47° |
| 2026-04-23 21:58 | -20.10640 | -43.56577 | 35142 ft | 477 kts | 47° |
| 2026-04-23 21:58 | -20.06100 | -43.51431 | 35136 ft | 477 kts | 47° |
| 2026-04-23 21:59 | -20.01562 | -43.46291 | 35136 ft | 476 kts | 47° |
| 2026-04-23 21:59 | -19.97028 | -43.41160 | 35128 ft | 476 kts | 47° |
| 2026-04-23 22:00 | -19.90226 | -43.33472 | 35127 ft | 476 kts | 47° |
| 2026-04-23 22:00 | -19.85719 | -43.28382 | 35129 ft | 476 kts | 47° |
| 2026-04-23 22:01 | -19.81174 | -43.23255 | 35124 ft | 476 kts | 47° |
| 2026-04-23 22:01 | -19.76632 | -43.18136 | 35119 ft | 476 kts | 47° |
| 2026-04-23 22:02 | -19.72090 | -43.13022 | 35119 ft | 476 kts | 47° |
| 2026-04-23 22:02 | -19.67553 | -43.07918 | 35117 ft | 475 kts | 47° |
| 2026-04-23 22:03 | -19.63010 | -43.02810 | 35122 ft | 475 kts | 47° |
| 2026-04-23 22:03 | -19.58542 | -42.97793 | 35120 ft | 475 kts | 47° |
| 2026-04-23 22:04 | -19.53998 | -42.92693 | 35116 ft | 475 kts | 47° |
| 2026-04-23 22:04 | -19.49491 | -42.87641 | 35115 ft | 475 kts | 47° |
| 2026-04-23 22:05 | -19.44942 | -42.82545 | 35105 ft | 475 kts | 47° |
| 2026-04-23 22:05 | -19.40397 | -42.77458 | 35093 ft | 475 kts | 47° |
| 2026-04-23 22:06 | -19.35845 | -42.72368 | 35096 ft | 475 kts | 47° |
| 2026-04-23 22:06 | -19.31294 | -42.67283 | 35090 ft | 476 kts | 47° |
| 2026-04-23 22:07 | -19.26735 | -42.62193 | 35091 ft | 476 kts | 47° |
| 2026-04-23 22:07 | -19.22207 | -42.57142 | 35090 ft | 476 kts | 47° |
| 2026-04-23 22:08 | -19.17646 | -42.52058 | 35090 ft | 476 kts | 47° |
| 2026-04-23 22:08 | -19.13086 | -42.46980 | 35094 ft | 476 kts | 47° |
| 2026-04-23 22:09 | -19.08745 | -42.41701 | 35092 ft | 475 kts | 55° |
| 2026-04-23 22:09 | -19.04990 | -42.35938 | 35079 ft | 475 kts | 57° |
| 2026-04-23 22:10 | -19.01295 | -42.30140 | 35090 ft | 475 kts | 57° |
| 2026-04-23 22:10 | -18.97560 | -42.24372 | 35081 ft | 475 kts | 57° |
| 2026-04-23 22:11 | -18.93795 | -42.18626 | 35076 ft | 475 kts | 57° |
| 2026-04-23 22:11 | -18.90042 | -42.12922 | 35079 ft | 475 kts | 57° |
| 2026-04-23 22:12 | -18.86267 | -42.07191 | 35077 ft | 475 kts | 57° |
| 2026-04-23 22:12 | -18.82488 | -42.01454 | 35073 ft | 475 kts | 57° |
| 2026-04-23 22:13 | -18.78779 | -41.95827 | 35071 ft | 475 kts | 57° |
| 2026-04-23 22:13 | -18.75004 | -41.90106 | 35069 ft | 475 kts | 57° |
| 2026-04-23 22:14 | -18.71252 | -41.84425 | 35069 ft | 475 kts | 57° |
| 2026-04-23 22:14 | -18.67471 | -41.78704 | 35069 ft | 475 kts | 57° |
| 2026-04-23 22:15 | -18.63693 | -41.72993 | 35071 ft | 475 kts | 57° |
| 2026-04-23 22:15 | -18.59917 | -41.67292 | 35079 ft | 474 kts | 57° |
| 2026-04-23 22:16 | -18.56138 | -41.61589 | 35077 ft | 474 kts | 57° |
| 2026-04-23 22:16 | -18.52356 | -41.55889 | 35081 ft | 474 kts | 57° |
| 2026-04-23 22:17 | -18.48572 | -41.50189 | 35086 ft | 475 kts | 57° |
| 2026-04-23 22:17 | -18.44781 | -41.44485 | 35093 ft | 475 kts | 57° |
| 2026-04-23 22:18 | -18.40985 | -41.38779 | 35091 ft | 475 kts | 57° |
| 2026-04-23 22:18 | -18.37217 | -41.33119 | 35101 ft | 475 kts | 57° |
| 2026-04-23 22:19 | -18.33419 | -41.27418 | 35096 ft | 476 kts | 57° |
| 2026-04-23 22:19 | -18.29614 | -41.21714 | 35103 ft | 476 kts | 57° |
| 2026-04-23 22:20 | -18.25808 | -41.16011 | 35106 ft | 476 kts | 57° |
| 2026-04-23 22:20 | -18.22000 | -41.10312 | 35099 ft | 476 kts | 57° |
| 2026-04-23 22:21 | -18.18194 | -41.04620 | 35101 ft | 475 kts | 57° |
| 2026-04-23 22:21 | -18.14447 | -40.99022 | 35098 ft | 474 kts | 57° |
| 2026-04-23 22:22 | -18.10651 | -40.93354 | 35102 ft | 474 kts | 57° |
| 2026-04-23 22:22 | -18.06877 | -40.87725 | 35105 ft | 473 kts | 57° |
| 2026-04-23 22:23 | -18.03081 | -40.82068 | 35099 ft | 473 kts | 57° |
| 2026-04-23 22:23 | -17.99290 | -40.76423 | 35099 ft | 472 kts | 57° |
| 2026-04-23 22:24 | -17.95499 | -40.70784 | 35100 ft | 472 kts | 57° |
| 2026-04-23 22:24 | -17.91714 | -40.65157 | 35097 ft | 472 kts | 57° |
| 2026-04-23 22:25 | -17.87900 | -40.59491 | 34481 ft | 480 kts | 57° |
| 2026-04-23 22:25 | -17.85972 | -40.56628 | 33855 ft | 479 kts | 57° |
| 2026-04-23 22:25 | -17.84051 | -40.53779 | 33124 ft | 479 kts | 57° |
| 2026-04-23 22:26 | -17.82118 | -40.50913 | 32400 ft | 480 kts | 57° |
| 2026-04-23 22:26 | -17.80186 | -40.48050 | 31673 ft | 481 kts | 57° |
| 2026-04-23 22:26 | -17.78272 | -40.45214 | 30910 ft | 484 kts | 57° |
| 2026-04-23 22:26 | -17.76322 | -40.42325 | 30310 ft | 482 kts | 57° |
| 2026-04-23 22:27 | -17.74389 | -40.39465 | 29659 ft | 480 kts | 57° |
| 2026-04-23 22:27 | -17.72462 | -40.36615 | 29082 ft | 475 kts | 57° |
| 2026-04-23 22:27 | -17.70562 | -40.33806 | 28513 ft | 471 kts | 57° |
| 2026-04-23 22:27 | -17.68677 | -40.31019 | 27961 ft | 466 kts | 57° |
| 2026-04-23 22:28 | -17.66805 | -40.28253 | 27416 ft | 462 kts | 56° |
| 2026-04-23 22:28 | -17.64950 | -40.25512 | 26881 ft | 458 kts | 56° |
| 2026-04-23 22:28 | -17.63114 | -40.22801 | 26349 ft | 454 kts | 56° |
| 2026-04-23 22:28 | -17.61316 | -40.20146 | 25808 ft | 451 kts | 56° |
| 2026-04-23 22:29 | -17.59504 | -40.17472 | 25262 ft | 448 kts | 56° |
| 2026-04-23 22:29 | -17.57703 | -40.14815 | 24732 ft | 446 kts | 56° |
| 2026-04-23 22:29 | -17.55913 | -40.12174 | 24201 ft | 443 kts | 56° |
| 2026-04-23 22:29 | -17.54127 | -40.09542 | 23670 ft | 441 kts | 56° |
| 2026-04-23 22:30 | -17.52355 | -40.06931 | 23058 ft | 438 kts | 56° |
| 2026-04-23 22:30 | -17.50598 | -40.04343 | 22514 ft | 434 kts | 56° |
| 2026-04-23 22:30 | -17.48858 | -40.01780 | 21982 ft | 429 kts | 56° |
| 2026-04-23 22:30 | -17.47185 | -39.99317 | 21482 ft | 425 kts | 56° |
| 2026-04-23 22:31 | -17.45480 | -39.96809 | 20973 ft | 421 kts | 56° |
| 2026-04-23 22:31 | -17.43758 | -39.94384 | 20468 ft | 418 kts | 49° |
| 2026-04-23 22:31 | -17.41497 | -39.92495 | 19976 ft | 417 kts | 30° |
| 2026-04-23 22:31 | -17.38935 | -39.91093 | 19493 ft | 413 kts | 27° |
| 2026-04-23 22:32 | -17.36374 | -39.89743 | 18992 ft | 411 kts | 27° |
| 2026-04-23 22:32 | -17.33833 | -39.88405 | 18479 ft | 409 kts | 27° |
| 2026-04-23 22:32 | -17.31300 | -39.87060 | 17943 ft | 406 kts | 27° |
| 2026-04-23 22:32 | -17.28799 | -39.85720 | 17417 ft | 402 kts | 27° |
| 2026-04-23 22:33 | -17.26325 | -39.84386 | 16920 ft | 398 kts | 27° |
| 2026-04-23 22:33 | -17.23871 | -39.83058 | 16436 ft | 394 kts | 27° |
| 2026-04-23 22:33 | -17.21453 | -39.81747 | 15960 ft | 390 kts | 27° |
| 2026-04-23 22:33 | -17.19046 | -39.80441 | 15489 ft | 387 kts | 27° |
| 2026-04-23 22:34 | -17.16665 | -39.79149 | 15022 ft | 384 kts | 26° |
| 2026-04-23 22:34 | -17.14306 | -39.77871 | 14562 ft | 381 kts | 26° |
| 2026-04-23 22:34 | -17.11956 | -39.76598 | 14083 ft | 379 kts | 26° |
| 2026-04-23 22:34 | -17.09651 | -39.75350 | 13585 ft | 377 kts | 26° |
| 2026-04-23 22:35 | -17.07333 | -39.74095 | 13078 ft | 373 kts | 26° |
| 2026-04-23 22:35 | -17.05036 | -39.72852 | 12614 ft | 369 kts | 26° |
| 2026-04-23 22:35 | -17.02766 | -39.71624 | 12166 ft | 365 kts | 27° |
| 2026-04-23 22:35 | -17.00558 | -39.70345 | 11781 ft | 360 kts | 30° |
| 2026-04-23 22:36 | -16.98428 | -39.69009 | 11344 ft | 356 kts | 31° |
| 2026-04-23 22:36 | -16.96322 | -39.67660 | 11000 ft | 350 kts | 31° |
| 2026-04-23 22:36 | -16.94295 | -39.66361 | 10847 ft | 332 kts | 31° |
| 2026-04-23 22:36 | -16.92377 | -39.65139 | 10698 ft | 314 kts | 31° |
| 2026-04-23 22:37 | -16.90560 | -39.63990 | 10561 ft | 297 kts | 31° |
| 2026-04-23 22:37 | -16.88834 | -39.62900 | 10446 ft | 286 kts | 31° |
| 2026-04-23 22:37 | -16.87141 | -39.61836 | 10341 ft | 283 kts | 31° |
| 2026-04-23 22:37 | -16.85473 | -39.60787 | 10241 ft | 282 kts | 31° |
| 2026-04-23 22:38 | -16.83801 | -39.59737 | 10116 ft | 276 kts | 32° |
| 2026-04-23 22:38 | -16.82175 | -39.58717 | 9829 ft | 269 kts | 32° |
| 2026-04-23 22:38 | -16.80593 | -39.57724 | 9545 ft | 261 kts | 32° |
| 2026-04-23 22:38 | -16.79053 | -39.56759 | 9267 ft | 256 kts | 32° |
| 2026-04-23 22:39 | -16.77536 | -39.55807 | 9016 ft | 254 kts | 32° |
| 2026-04-23 22:39 | -16.76533 | -39.55178 | 8860 ft | 256 kts | 32° |
| 2026-04-23 22:39 | -16.74970 | -39.54198 | 8618 ft | 269 kts | 32° |
| 2026-04-23 22:39 | -16.73355 | -39.53144 | 8310 ft | 277 kts | 36° |
| 2026-04-23 22:40 | -16.71804 | -39.51951 | 7987 ft | 277 kts | 39° |
| 2026-04-23 22:40 | -16.70276 | -39.50723 | 7690 ft | 277 kts | 39° |
| 2026-04-23 22:40 | -16.67236 | -39.48276 | 7091 ft | 271 kts | 39° |
| 2026-04-23 22:41 | -16.65759 | -39.47097 | 6808 ft | 264 kts | 39° |
| 2026-04-23 22:41 | -16.64311 | -39.45945 | 6545 ft | 261 kts | 39° |
| 2026-04-23 22:41 | -16.62866 | -39.44798 | 6265 ft | 261 kts | 39° |
| 2026-04-23 22:41 | -16.61418 | -39.43649 | 5984 ft | 261 kts | 40° |
| 2026-04-23 22:42 | -16.60003 | -39.42530 | 5761 ft | 253 kts | 40° |
| 2026-04-23 22:42 | -16.58655 | -39.41466 | 5668 ft | 234 kts | 40° |
| 2026-04-23 22:42 | -16.57407 | -39.40480 | 5525 ft | 216 kts | 40° |
| 2026-04-23 22:42 | -16.56234 | -39.39553 | 5114 ft | 214 kts | 41° |
| 2026-04-23 22:43 | -16.55073 | -39.38635 | 4831 ft | 206 kts | 41° |
| 2026-04-23 22:43 | -16.53954 | -39.37752 | 4615 ft | 195 kts | 41° |
| 2026-04-23 22:43 | -16.52896 | -39.36918 | 4442 ft | 189 kts | 41° |
| 2026-04-23 22:43 | -16.51843 | -39.36081 | 4237 ft | 190 kts | 44° |
| 2026-04-23 22:44 | -16.51114 | -39.35008 | 4098 ft | 176 kts | 81° |
| 2026-04-23 22:44 | -16.50852 | -39.33774 | 4043 ft | 179 kts | 77° |
| 2026-04-23 22:44 | -16.50477 | -39.32550 | 3956 ft | 174 kts | 78° |
| 2026-04-23 22:44 | -16.50142 | -39.31361 | 3872 ft | 168 kts | 78° |
| 2026-04-23 22:45 | -16.49827 | -39.30202 | 3793 ft | 164 kts | 79° |
| 2026-04-23 22:45 | -16.49523 | -39.29080 | 3737 ft | 159 kts | 79° |
| 2026-04-23 22:45 | -16.49228 | -39.27987 | 3616 ft | 155 kts | 79° |
| 2026-04-23 22:45 | -16.48940 | -39.26928 | 3494 ft | 148 kts | 80° |
| 2026-04-23 22:46 | -16.48656 | -39.25875 | 3329 ft | 151 kts | 79° |
| 2026-04-23 22:46 | -16.48372 | -39.24826 | 3152 ft | 149 kts | 80° |
| 2026-04-23 22:46 | -16.48093 | -39.23795 | 2988 ft | 148 kts | 80° |
| 2026-04-23 22:46 | -16.47815 | -39.22765 | 2857 ft | 146 kts | 80° |
| 2026-04-23 22:47 | -16.47540 | -39.21744 | 2704 ft | 150 kts | 80° |
| 2026-04-23 22:47 | -16.47258 | -39.20703 | 2511 ft | 149 kts | 79° |
| 2026-04-23 22:47 | -16.46977 | -39.19667 | 2311 ft | 147 kts | 80° |
| 2026-04-23 22:47 | -16.46701 | -39.18646 | 2104 ft | 146 kts | 80° |
| 2026-04-23 22:48 | -16.46426 | -39.17626 | 1936 ft | 147 kts | 79° |
| 2026-04-23 22:48 | -16.46149 | -39.16602 | 1732 ft | 146 kts | 79° |
| 2026-04-23 22:48 | -16.45875 | -39.15588 | 1538 ft | 146 kts | 80° |
| 2026-04-23 22:48 | -16.45599 | -39.14565 | 1338 ft | 147 kts | 79° |
| 2026-04-23 22:49 | -16.45323 | -39.13541 | 1157 ft | 148 kts | 79° |
| 2026-04-23 22:49 | -16.45045 | -39.12512 | 968 ft | 147 kts | 78° |
| 2026-04-23 22:49 | -16.44770 | -39.11495 | 768 ft | 144 kts | 78° |
| 2026-04-23 22:49 | -16.44498 | -39.10485 | 574 ft | 147 kts | 77° |
| 2026-04-23 22:50 | -16.44219 | -39.09444 | 332 ft | 151 kts | 75° |
| 2026-04-23 22:50 | -16.43937 | -39.08407 | 172 ft | 134 kts | 73° |
| 2026-04-23 22:50 | -16.43754 | -39.07736 | 169 ft | 38 kts | 74° |
| 2026-04-23 22:50 | -16.43758 | -39.07666 | 169 ft | 0 kts | 159° |
| 2026-04-23 22:51 | -16.43763 | -39.07668 | 169 ft | 1 kts | 205° |
| 2026-04-23 22:51 | -16.43760 | -39.07679 | 169 ft | 3 kts | 294° |
| 2026-04-23 22:51 | -16.43753 | -39.07720 | 169 ft | 7 kts | 266° |
| 2026-04-23 22:51 | -16.43763 | -39.07767 | 169 ft | 7 kts | 254° |
| 2026-04-23 22:52 | -16.43775 | -39.07814 | 169 ft | 7 kts | 255° |
| 2026-04-23 22:52 | -16.43790 | -39.07873 | 169 ft | 10 kts | 255° |
| 2026-04-23 22:52 | -16.43812 | -39.07950 | 169 ft | 12 kts | 253° |
| 2026-04-23 22:52 | -16.43837 | -39.08040 | 169 ft | 14 kts | 254° |
| 2026-04-23 22:53 | -16.43869 | -39.08129 | 171 ft | 13 kts | 226° |
| 2026-04-23 22:53 | -16.43953 | -39.08129 | 171 ft | 13 kts | 164° |
| 2026-04-23 22:53 | -16.44037 | -39.08105 | 171 ft | 12 kts | 165° |
| 2026-04-23 22:53 | -16.44062 | -39.08098 | 171 ft | 0 kts | 165° |